sensor_id;sensor_type;location;lat;lon;timestamp;P1;durP1;ratioP1;P2;durP2;ratioP2
4061;SDS011;2046;47.064;15.456;2023-05-10T00:00:16;4.93;;;1.80;;
4061;SDS011;2046;47.064;15.456;2023-05-10T00:02:43;1.67;;;1.35;;
4061;SDS011;2046;47.064;15.456;2023-05-10T00:05:10;1.70;;;1.60;;
4061;SDS011;2046;47.064;15.456;2023-05-10T00:07:37;2.65;;;1.85;;
4061;SDS011;2046;47.064;15.456;2023-05-10T00:10:04;1.88;;;1.30;;
4061;SDS011;2046;47.064;15.456;2023-05-10T00:12:31;3.72;;;1.60;;
4061;SDS011;2046;47.064;15.456;2023-05-10T00:14:57;1.70;;;1.60;;
4061;SDS011;2046;47.064;15.456;2023-05-10T00:17:24;1.85;;;1.75;;
4061;SDS011;2046;47.064;15.456;2023-05-10T00:19:51;1.60;;;1.50;;
4061;SDS011;2046;47.064;15.456;2023-05-10T00:22:17;1.60;;;1.50;;
4061;SDS011;2046;47.064;15.456;2023-05-10T00:24:44;1.65;;;1.55;;
4061;SDS011;2046;47.064;15.456;2023-05-10T00:27:11;1.90;;;1.60;;
4061;SDS011;2046;47.064;15.456;2023-05-10T00:29:37;1.38;;;1.27;;
4061;SDS011;2046;47.064;15.456;2023-05-10T00:32:04;1.65;;;1.55;;
4061;SDS011;2046;47.064;15.456;2023-05-10T00:34:31;1.45;;;1.35;;
4061;SDS011;2046;47.064;15.456;2023-05-10T00:36:58;1.80;;;1.40;;
4061;SDS011;2046;47.064;15.456;2023-05-10T00:39:24;2.08;;;1.70;;
4061;SDS011;2046;47.064;15.456;2023-05-10T00:41:52;1.73;;;1.63;;
4061;SDS011;2046;47.064;15.456;2023-05-10T00:44:19;1.65;;;1.55;;
4061;SDS011;2046;47.064;15.456;2023-05-10T00:46:46;1.63;;;1.52;;
4061;SDS011;2046;47.064;15.456;2023-05-10T00:49:13;1.88;;;1.67;;
4061;SDS011;2046;47.064;15.456;2023-05-10T00:51:40;2.30;;;1.55;;
4061;SDS011;2046;47.064;15.456;2023-05-10T00:54:10;3.00;;;1.70;;
4061;SDS011;2046;47.064;15.456;2023-05-10T00:56:37;1.92;;;1.17;;
4061;SDS011;2046;47.064;15.456;2023-05-10T00:59:04;1.70;;;1.60;;
4061;SDS011;2046;47.064;15.456;2023-05-10T01:01:30;1.60;;;1.50;;
4061;SDS011;2046;47.064;15.456;2023-05-10T01:03:57;2.55;;;1.70;;
4061;SDS011;2046;47.064;15.456;2023-05-10T01:06:24;1.70;;;1.60;;
4061;SDS011;2046;47.064;15.456;2023-05-10T01:08:51;4.43;;;1.60;;
4061;SDS011;2046;47.064;15.456;2023-05-10T01:11:18;2.03;;;1.45;;
4061;SDS011;2046;47.064;15.456;2023-05-10T01:13:45;2.47;;;1.63;;
4061;SDS011;2046;47.064;15.456;2023-05-10T01:16:13;2.17;;;1.80;;
4061;SDS011;2046;47.064;15.456;2023-05-10T01:18:40;1.60;;;1.50;;
4061;SDS011;2046;47.064;15.456;2023-05-10T01:21:12;2.30;;;1.90;;
4061;SDS011;2046;47.064;15.456;2023-05-10T01:23:44;1.98;;;1.40;;
4061;SDS011;2046;47.064;15.456;2023-05-10T01:26:14;2.25;;;1.88;;
4061;SDS011;2046;47.064;15.456;2023-05-10T01:28:55;2.25;;;1.70;;
4061;SDS011;2046;47.064;15.456;2023-05-10T01:36:27;1.90;;;1.65;;
4061;SDS011;2046;47.064;15.456;2023-05-10T01:39:16;2.17;;;1.58;;
4061;SDS011;2046;47.064;15.456;2023-05-10T01:47:40;2.40;;;2.20;;
4061;SDS011;2046;47.064;15.456;2023-05-10T01:49:50;2.10;;;1.50;;
4061;SDS011;2046;47.064;15.456;2023-05-10T01:52:19;2.72;;;1.90;;
4061;SDS011;2046;47.064;15.456;2023-05-10T01:54:55;2.70;;;1.95;;
4061;SDS011;2046;47.064;15.456;2023-05-10T01:57:22;2.35;;;1.60;;
4061;SDS011;2046;47.064;15.456;2023-05-10T01:59:52;2.25;;;1.63;;
4061;SDS011;2046;47.064;15.456;2023-05-10T02:02:20;1.88;;;1.50;;
4061;SDS011;2046;47.064;15.456;2023-05-10T02:04:47;4.07;;;1.58;;
4061;SDS011;2046;47.064;15.456;2023-05-10T02:07:15;2.25;;;1.60;;
4061;SDS011;2046;47.064;15.456;2023-05-10T02:09:44;1.38;;;1.27;;
4061;SDS011;2046;47.064;15.456;2023-05-10T02:12:14;1.60;;;1.50;;
4061;SDS011;2046;47.064;15.456;2023-05-10T02:14:41;2.70;;;1.63;;
4061;SDS011;2046;47.064;15.456;2023-05-10T02:17:09;2.90;;;1.85;;
4061;SDS011;2046;47.064;15.456;2023-05-10T02:19:38;1.77;;;1.67;;
4061;SDS011;2046;47.064;15.456;2023-05-10T02:22:05;1.83;;;1.25;;
4061;SDS011;2046;47.064;15.456;2023-05-10T02:24:32;1.75;;;1.50;;
4061;SDS011;2046;47.064;15.456;2023-05-10T02:27:00;4.05;;;2.05;;
4061;SDS011;2046;47.064;15.456;2023-05-10T02:29:28;1.48;;;1.38;;
4061;SDS011;2046;47.064;15.456;2023-05-10T02:31:56;1.70;;;1.60;;
4061;SDS011;2046;47.064;15.456;2023-05-10T02:34:25;3.58;;;1.77;;
4061;SDS011;2046;47.064;15.456;2023-05-10T02:36:52;2.90;;;1.80;;
4061;SDS011;2046;47.064;15.456;2023-05-10T02:39:19;2.13;;;1.60;;
4061;SDS011;2046;47.064;15.456;2023-05-10T02:41:48;1.70;;;1.50;;
4061;SDS011;2046;47.064;15.456;2023-05-10T02:44:15;2.00;;;1.90;;
4061;SDS011;2046;47.064;15.456;2023-05-10T02:46:43;2.63;;;1.73;;
4061;SDS011;2046;47.064;15.456;2023-05-10T02:49:10;3.13;;;1.85;;
4061;SDS011;2046;47.064;15.456;2023-05-10T02:51:37;2.33;;;1.48;;
4061;SDS011;2046;47.064;15.456;2023-05-10T02:54:10;1.98;;;1.70;;
4061;SDS011;2046;47.064;15.456;2023-05-10T02:56:40;2.63;;;2.00;;
4061;SDS011;2046;47.064;15.456;2023-05-10T02:59:07;1.80;;;1.70;;
4061;SDS011;2046;47.064;15.456;2023-05-10T03:01:34;2.92;;;1.85;;
4061;SDS011;2046;47.064;15.456;2023-05-10T03:04:01;1.98;;;1.75;;
4061;SDS011;2046;47.064;15.456;2023-05-10T03:06:27;2.70;;;1.80;;
4061;SDS011;2046;47.064;15.456;2023-05-10T03:08:55;1.60;;;1.50;;
4061;SDS011;2046;47.064;15.456;2023-05-10T03:16:16;1.75;;;1.50;;
4061;SDS011;2046;47.064;15.456;2023-05-10T03:21:13;1.80;;;1.58;;
4061;SDS011;2046;47.064;15.456;2023-05-10T03:23:48;1.70;;;1.40;;
4061;SDS011;2046;47.064;15.456;2023-05-10T03:26:17;5.20;;;2.08;;
4061;SDS011;2046;47.064;15.456;2023-05-10T03:28:47;3.88;;;1.85;;
4061;SDS011;2046;47.064;15.456;2023-05-10T03:31:14;2.17;;;1.90;;
4061;SDS011;2046;47.064;15.456;2023-05-10T03:33:47;2.28;;;1.52;;
4061;SDS011;2046;47.064;15.456;2023-05-10T03:36:14;2.78;;;1.73;;
4061;SDS011;2046;47.064;15.456;2023-05-10T03:38:41;2.58;;;1.90;;
4061;SDS011;2046;47.064;15.456;2023-05-10T03:41:08;1.95;;;1.55;;
4061;SDS011;2046;47.064;15.456;2023-05-10T03:43:34;1.83;;;1.73;;
4061;SDS011;2046;47.064;15.456;2023-05-10T03:46:02;1.95;;;1.30;;
4061;SDS011;2046;47.064;15.456;2023-05-10T03:48:29;4.22;;;1.58;;
4061;SDS011;2046;47.064;15.456;2023-05-10T03:50:55;1.77;;;1.55;;
4061;SDS011;2046;47.064;15.456;2023-05-10T03:53:22;4.22;;;1.80;;
4061;SDS011;2046;47.064;15.456;2023-05-10T03:55:49;1.40;;;1.30;;
4061;SDS011;2046;47.064;15.456;2023-05-10T03:58:16;2.17;;;1.52;;
4061;SDS011;2046;47.064;15.456;2023-05-10T04:00:43;1.65;;;1.45;;
4061;SDS011;2046;47.064;15.456;2023-05-10T04:03:12;1.88;;;1.50;;
4061;SDS011;2046;47.064;15.456;2023-05-10T04:05:39;2.13;;;1.52;;
4061;SDS011;2046;47.064;15.456;2023-05-10T04:08:06;3.20;;;1.75;;
4061;SDS011;2046;47.064;15.456;2023-05-10T04:10:33;1.90;;;1.80;;
4061;SDS011;2046;47.064;15.456;2023-05-10T04:12:59;3.03;;;1.70;;
4061;SDS011;2046;47.064;15.456;2023-05-10T04:15:26;2.95;;;1.98;;
4061;SDS011;2046;47.064;15.456;2023-05-10T04:17:53;4.45;;;1.60;;
4061;SDS011;2046;47.064;15.456;2023-05-10T04:20:20;2.00;;;1.80;;
4061;SDS011;2046;47.064;15.456;2023-05-10T04:22:46;1.92;;;1.45;;
4061;SDS011;2046;47.064;15.456;2023-05-10T04:25:13;1.73;;;1.60;;
4061;SDS011;2046;47.064;15.456;2023-05-10T04:27:39;1.63;;;1.52;;
4061;SDS011;2046;47.064;15.456;2023-05-10T04:30:06;1.77;;;1.52;;
4061;SDS011;2046;47.064;15.456;2023-05-10T04:32:33;2.42;;;1.90;;
4061;SDS011;2046;47.064;15.456;2023-05-10T04:35:00;2.00;;;1.80;;
4061;SDS011;2046;47.064;15.456;2023-05-10T04:37:29;2.17;;;1.90;;
4061;SDS011;2046;47.064;15.456;2023-05-10T04:39:55;2.50;;;2.30;;
4061;SDS011;2046;47.064;15.456;2023-05-10T04:42:22;1.95;;;1.70;;
4061;SDS011;2046;47.064;15.456;2023-05-10T04:44:49;1.85;;;1.70;;
4061;SDS011;2046;47.064;15.456;2023-05-10T04:47:15;1.30;;;1.20;;
4061;SDS011;2046;47.064;15.456;2023-05-10T04:49:42;1.75;;;1.65;;
4061;SDS011;2046;47.064;15.456;2023-05-10T04:52:09;2.75;;;1.90;;
4061;SDS011;2046;47.064;15.456;2023-05-10T04:54:36;2.63;;;1.45;;
4061;SDS011;2046;47.064;15.456;2023-05-10T04:57:02;1.85;;;1.52;;
4061;SDS011;2046;47.064;15.456;2023-05-10T04:59:29;1.95;;;1.75;;
4061;SDS011;2046;47.064;15.456;2023-05-10T05:01:56;2.53;;;1.95;;
4061;SDS011;2046;47.064;15.456;2023-05-10T05:04:22;2.20;;;1.90;;
4061;SDS011;2046;47.064;15.456;2023-05-10T05:06:50;4.53;;;1.77;;
4061;SDS011;2046;47.064;15.456;2023-05-10T05:09:19;1.63;;;1.48;;
4061;SDS011;2046;47.064;15.456;2023-05-10T05:11:46;2.22;;;1.75;;
4061;SDS011;2046;47.064;15.456;2023-05-10T05:14:13;2.50;;;1.70;;
4061;SDS011;2046;47.064;15.456;2023-05-10T05:16:39;1.70;;;1.60;;
4061;SDS011;2046;47.064;15.456;2023-05-10T05:19:06;2.15;;;1.95;;
4061;SDS011;2046;47.064;15.456;2023-05-10T05:21:32;2.70;;;2.15;;
4061;SDS011;2046;47.064;15.456;2023-05-10T05:23:59;2.40;;;1.80;;
4061;SDS011;2046;47.064;15.456;2023-05-10T05:26:26;2.75;;;1.85;;
4061;SDS011;2046;47.064;15.456;2023-05-10T05:28:52;3.47;;;1.88;;
4061;SDS011;2046;47.064;15.456;2023-05-10T05:31:20;2.42;;;1.90;;
4061;SDS011;2046;47.064;15.456;2023-05-10T05:33:47;3.90;;;1.90;;
4061;SDS011;2046;47.064;15.456;2023-05-10T05:36:14;2.55;;;2.00;;
4061;SDS011;2046;47.064;15.456;2023-05-10T05:38:41;2.47;;;2.00;;
4061;SDS011;2046;47.064;15.456;2023-05-10T05:41:07;6.32;;;2.35;;
4061;SDS011;2046;47.064;15.456;2023-05-10T05:43:34;1.92;;;1.77;;
4061;SDS011;2046;47.064;15.456;2023-05-10T05:46:03;4.22;;;2.22;;
4061;SDS011;2046;47.064;15.456;2023-05-10T05:48:30;2.92;;;2.13;;
4061;SDS011;2046;47.064;15.456;2023-05-10T05:50:57;2.42;;;1.95;;
4061;SDS011;2046;47.064;15.456;2023-05-10T05:53:24;2.20;;;1.60;;
4061;SDS011;2046;47.064;15.456;2023-05-10T05:55:55;1.90;;;1.80;;
4061;SDS011;2046;47.064;15.456;2023-05-10T05:58:22;3.00;;;2.28;;
4061;SDS011;2046;47.064;15.456;2023-05-10T06:00:49;2.42;;;1.90;;
4061;SDS011;2046;47.064;15.456;2023-05-10T06:03:17;3.50;;;2.00;;
4061;SDS011;2046;47.064;15.456;2023-05-10T06:05:44;1.50;;;1.40;;
4061;SDS011;2046;47.064;15.456;2023-05-10T06:08:11;2.42;;;2.13;;
4061;SDS011;2046;47.064;15.456;2023-05-10T06:10:37;1.90;;;1.80;;
4061;SDS011;2046;47.064;15.456;2023-05-10T06:13:04;3.33;;;2.15;;
4061;SDS011;2046;47.064;15.456;2023-05-10T06:15:31;2.75;;;1.95;;
4061;SDS011;2046;47.064;15.456;2023-05-10T06:17:58;2.92;;;2.20;;
4061;SDS011;2046;47.064;15.456;2023-05-10T06:20:25;1.95;;;1.85;;
4061;SDS011;2046;47.064;15.456;2023-05-10T06:22:52;2.13;;;1.90;;
4061;SDS011;2046;47.064;15.456;2023-05-10T06:25:19;2.33;;;1.92;;
4061;SDS011;2046;47.064;15.456;2023-05-10T06:27:46;2.28;;;1.95;;
4061;SDS011;2046;47.064;15.456;2023-05-10T06:30:18;1.88;;;1.63;;
4061;SDS011;2046;47.064;15.456;2023-05-10T06:32:44;2.25;;;1.88;;
4061;SDS011;2046;47.064;15.456;2023-05-10T06:35:11;2.63;;;2.15;;
4061;SDS011;2046;47.064;15.456;2023-05-10T06:37:39;2.65;;;2.05;;
4061;SDS011;2046;47.064;15.456;2023-05-10T06:40:07;2.10;;;1.80;;
4061;SDS011;2046;47.064;15.456;2023-05-10T06:42:34;4.88;;;1.98;;
4061;SDS011;2046;47.064;15.456;2023-05-10T06:45:02;2.83;;;1.77;;
4061;SDS011;2046;47.064;15.456;2023-05-10T06:47:29;3.42;;;1.85;;
4061;SDS011;2046;47.064;15.456;2023-05-10T06:49:58;2.00;;;1.80;;
4061;SDS011;2046;47.064;15.456;2023-05-10T06:52:25;2.17;;;1.88;;
4061;SDS011;2046;47.064;15.456;2023-05-10T06:54:51;4.43;;;1.85;;
4061;SDS011;2046;47.064;15.456;2023-05-10T06:57:18;3.50;;;1.73;;
4061;SDS011;2046;47.064;15.456;2023-05-10T06:59:56;2.38;;;1.73;;
4061;SDS011;2046;47.064;15.456;2023-05-10T07:02:22;2.20;;;1.80;;
4061;SDS011;2046;47.064;15.456;2023-05-10T07:04:49;2.20;;;1.75;;
4061;SDS011;2046;47.064;15.456;2023-05-10T07:07:16;3.08;;;1.70;;
4061;SDS011;2046;47.064;15.456;2023-05-10T07:09:43;2.35;;;1.75;;
4061;SDS011;2046;47.064;15.456;2023-05-10T07:12:09;1.60;;;1.50;;
4061;SDS011;2046;47.064;15.456;2023-05-10T07:14:40;1.80;;;1.70;;
4061;SDS011;2046;47.064;15.456;2023-05-10T07:17:06;5.60;;;1.60;;
4061;SDS011;2046;47.064;15.456;2023-05-10T07:19:33;3.08;;;1.70;;
4061;SDS011;2046;47.064;15.456;2023-05-10T07:22:00;2.25;;;1.77;;
4061;SDS011;2046;47.064;15.456;2023-05-10T07:24:27;1.77;;;1.60;;
4061;SDS011;2046;47.064;15.456;2023-05-10T07:26:53;2.22;;;1.60;;
4061;SDS011;2046;47.064;15.456;2023-05-10T07:29:20;2.95;;;1.80;;
4061;SDS011;2046;47.064;15.456;2023-05-10T07:31:48;2.17;;;1.88;;
4061;SDS011;2046;47.064;15.456;2023-05-10T07:34:15;2.08;;;1.95;;
4061;SDS011;2046;47.064;15.456;2023-05-10T07:36:42;2.60;;;1.88;;
4061;SDS011;2046;47.064;15.456;2023-05-10T07:39:08;2.58;;;1.90;;
4061;SDS011;2046;47.064;15.456;2023-05-10T07:41:39;15.85;;;4.30;;
4061;SDS011;2046;47.064;15.456;2023-05-10T07:44:06;33.38;;;5.82;;
4061;SDS011;2046;47.064;15.456;2023-05-10T07:46:32;40.20;;;7.30;;
4061;SDS011;2046;47.064;15.456;2023-05-10T07:48:59;28.15;;;6.45;;
4061;SDS011;2046;47.064;15.456;2023-05-10T07:51:26;43.22;;;7.30;;
4061;SDS011;2046;47.064;15.456;2023-05-10T07:53:52;26.92;;;5.75;;
4061;SDS011;2046;47.064;15.456;2023-05-10T07:56:20;17.80;;;4.72;;
4061;SDS011;2046;47.064;15.456;2023-05-10T07:58:47;15.35;;;4.30;;
4061;SDS011;2046;47.064;15.456;2023-05-10T08:01:14;20.58;;;4.00;;
4061;SDS011;2046;47.064;15.456;2023-05-10T08:03:40;15.70;;;4.18;;
4061;SDS011;2046;47.064;15.456;2023-05-10T08:06:07;17.75;;;7.53;;
4061;SDS011;2046;47.064;15.456;2023-05-10T08:08:34;11.40;;;4.63;;
4061;SDS011;2046;47.064;15.456;2023-05-10T08:11:00;71.57;;;32.85;;
4061;SDS011;2046;47.064;15.456;2023-05-10T08:13:27;40.72;;;17.08;;
4061;SDS011;2046;47.064;15.456;2023-05-10T08:15:54;124.32;;;15.90;;
4061;SDS011;2046;47.064;15.456;2023-05-10T08:18:20;77.10;;;23.45;;
4061;SDS011;2046;47.064;15.456;2023-05-10T08:20:47;39.53;;;13.50;;
4061;SDS011;2046;47.064;15.456;2023-05-10T08:23:14;31.80;;;9.05;;
4061;SDS011;2046;47.064;15.456;2023-05-10T08:25:40;35.50;;;6.97;;
4061;SDS011;2046;47.064;15.456;2023-05-10T08:28:07;20.35;;;5.43;;
4061;SDS011;2046;47.064;15.456;2023-05-10T08:30:35;17.17;;;5.38;;
4061;SDS011;2046;47.064;15.456;2023-05-10T08:33:02;10.18;;;3.88;;
4061;SDS011;2046;47.064;15.456;2023-05-10T08:35:29;12.70;;;3.75;;
4061;SDS011;2046;47.064;15.456;2023-05-10T08:37:55;8.45;;;4.10;;
4061;SDS011;2046;47.064;15.456;2023-05-10T08:40:22;13.25;;;3.83;;
4061;SDS011;2046;47.064;15.456;2023-05-10T08:42:55;12.13;;;4.15;;
4061;SDS011;2046;47.064;15.456;2023-05-10T08:45:25;7.80;;;2.92;;
4061;SDS011;2046;47.064;15.456;2023-05-10T08:47:54;11.48;;;2.92;;
4061;SDS011;2046;47.064;15.456;2023-05-10T08:50:21;7.68;;;2.90;;
4061;SDS011;2046;47.064;15.456;2023-05-10T08:52:48;9.00;;;2.92;;
4061;SDS011;2046;47.064;15.456;2023-05-10T08:55:17;9.77;;;2.65;;
4061;SDS011;2046;47.064;15.456;2023-05-10T08:57:44;8.77;;;3.13;;
4061;SDS011;2046;47.064;15.456;2023-05-10T09:00:11;5.97;;;2.72;;
4061;SDS011;2046;47.064;15.456;2023-05-10T09:02:38;5.68;;;2.90;;
4061;SDS011;2046;47.064;15.456;2023-05-10T09:05:05;5.25;;;3.30;;
4061;SDS011;2046;47.064;15.456;2023-05-10T09:07:31;7.55;;;2.45;;
4061;SDS011;2046;47.064;15.456;2023-05-10T09:10:01;7.00;;;2.50;;
4061;SDS011;2046;47.064;15.456;2023-05-10T09:12:28;5.57;;;2.58;;
4061;SDS011;2046;47.064;15.456;2023-05-10T09:14:55;4.85;;;2.22;;
4061;SDS011;2046;47.064;15.456;2023-05-10T09:17:22;5.57;;;2.80;;
4061;SDS011;2046;47.064;15.456;2023-05-10T09:19:49;3.33;;;2.20;;
4061;SDS011;2046;47.064;15.456;2023-05-10T09:22:16;5.25;;;2.38;;
4061;SDS011;2046;47.064;15.456;2023-05-10T09:24:43;6.97;;;2.22;;
4061;SDS011;2046;47.064;15.456;2023-05-10T09:27:11;4.15;;;2.30;;
4061;SDS011;2046;47.064;15.456;2023-05-10T09:29:38;7.30;;;2.53;;
4061;SDS011;2046;47.064;15.456;2023-05-10T09:32:05;5.63;;;2.25;;
4061;SDS011;2046;47.064;15.456;2023-05-10T09:34:32;5.57;;;2.42;;
4061;SDS011;2046;47.064;15.456;2023-05-10T09:37:01;4.20;;;2.55;;
4061;SDS011;2046;47.064;15.456;2023-05-10T09:41:59;6.07;;;2.10;;
4061;SDS011;2046;47.064;15.456;2023-05-10T09:44:28;3.78;;;2.90;;
4061;SDS011;2046;47.064;15.456;2023-05-10T09:46:55;6.22;;;4.30;;
4061;SDS011;2046;47.064;15.456;2023-05-10T09:49:21;3.63;;;2.80;;
4061;SDS011;2046;47.064;15.456;2023-05-10T09:52:09;4.90;;;3.10;;
4061;SDS011;2046;47.064;15.456;2023-05-10T09:54:35;4.53;;;2.53;;
4061;SDS011;2046;47.064;15.456;2023-05-10T09:57:02;3.17;;;2.20;;
4061;SDS011;2046;47.064;15.456;2023-05-10T09:59:29;5.55;;;2.90;;
4061;SDS011;2046;47.064;15.456;2023-05-10T10:01:59;4.22;;;2.33;;
4061;SDS011;2046;47.064;15.456;2023-05-10T10:04:27;3.28;;;2.20;;
4061;SDS011;2046;47.064;15.456;2023-05-10T10:07:00;8.70;;;2.33;;
4061;SDS011;2046;47.064;15.456;2023-05-10T10:09:28;4.32;;;2.30;;
4061;SDS011;2046;47.064;15.456;2023-05-10T10:11:55;3.88;;;2.30;;
4061;SDS011;2046;47.064;15.456;2023-05-10T10:14:23;3.35;;;2.10;;
4061;SDS011;2046;47.064;15.456;2023-05-10T10:16:53;2.97;;;2.08;;
4061;SDS011;2046;47.064;15.456;2023-05-10T10:19:33;2.97;;;1.60;;
4061;SDS011;2046;47.064;15.456;2023-05-10T10:22:00;3.17;;;1.80;;
4061;SDS011;2046;47.064;15.456;2023-05-10T10:24:27;2.35;;;1.92;;
4061;SDS011;2046;47.064;15.456;2023-05-10T10:26:54;3.15;;;1.70;;
4061;SDS011;2046;47.064;15.456;2023-05-10T10:29:26;8.18;;;1.90;;
4061;SDS011;2046;47.064;15.456;2023-05-10T10:34:28;2.22;;;1.70;;
4061;SDS011;2046;47.064;15.456;2023-05-10T10:36:56;3.10;;;1.88;;
4061;SDS011;2046;47.064;15.456;2023-05-10T10:39:23;2.53;;;1.70;;
4061;SDS011;2046;47.064;15.456;2023-05-10T10:41:52;1.95;;;1.70;;
4061;SDS011;2046;47.064;15.456;2023-05-10T10:57:26;2.63;;;2.00;;
4061;SDS011;2046;47.064;15.456;2023-05-10T11:00:17;2.25;;;1.90;;
4061;SDS011;2046;47.064;15.456;2023-05-10T11:07:56;2.13;;;1.83;;
4061;SDS011;2046;47.064;15.456;2023-05-10T11:10:24;1.83;;;1.73;;
4061;SDS011;2046;47.064;15.456;2023-05-10T11:13:00;2.85;;;2.00;;
4061;SDS011;2046;47.064;15.456;2023-05-10T11:15:31;1.95;;;1.67;;
4061;SDS011;2046;47.064;15.456;2023-05-10T11:17:57;2.88;;;1.98;;
4061;SDS011;2046;47.064;15.456;2023-05-10T11:20:27;2.47;;;1.65;;
4061;SDS011;2046;47.064;15.456;2023-05-10T11:23:10;5.18;;;1.98;;
4061;SDS011;2046;47.064;15.456;2023-05-10T11:25:40;3.60;;;2.05;;
4061;SDS011;2046;47.064;15.456;2023-05-10T11:28:07;3.28;;;1.95;;
4061;SDS011;2046;47.064;15.456;2023-05-10T11:30:34;2.80;;;1.45;;
4061;SDS011;2046;47.064;15.456;2023-05-10T11:33:01;2.83;;;2.00;;
4061;SDS011;2046;47.064;15.456;2023-05-10T11:35:27;2.30;;;1.80;;
4061;SDS011;2046;47.064;15.456;2023-05-10T11:37:54;7.43;;;2.00;;
4061;SDS011;2046;47.064;15.456;2023-05-10T11:40:23;3.58;;;1.85;;
4061;SDS011;2046;47.064;15.456;2023-05-10T11:42:50;3.83;;;1.98;;
4061;SDS011;2046;47.064;15.456;2023-05-10T11:45:17;1.98;;;1.55;;
4061;SDS011;2046;47.064;15.456;2023-05-10T11:47:44;6.18;;;2.00;;
4061;SDS011;2046;47.064;15.456;2023-05-10T11:50:10;1.58;;;1.48;;
4061;SDS011;2046;47.064;15.456;2023-05-10T11:52:37;3.08;;;1.90;;
4061;SDS011;2046;47.064;15.456;2023-05-10T11:55:04;1.80;;;1.70;;
4061;SDS011;2046;47.064;15.456;2023-05-10T11:57:31;3.63;;;1.77;;
4061;SDS011;2046;47.064;15.456;2023-05-10T11:59:58;2.00;;;1.80;;
4061;SDS011;2046;47.064;15.456;2023-05-10T12:02:24;3.58;;;2.10;;
4061;SDS011;2046;47.064;15.456;2023-05-10T12:04:51;4.68;;;2.00;;
4061;SDS011;2046;47.064;15.456;2023-05-10T12:07:18;9.10;;;2.13;;
4061;SDS011;2046;47.064;15.456;2023-05-10T12:10:02;20.70;;;8.75;;
4061;SDS011;2046;47.064;15.456;2023-05-10T12:12:35;11.35;;;4.22;;
4061;SDS011;2046;47.064;15.456;2023-05-10T12:15:03;8.75;;;4.03;;
4061;SDS011;2046;47.064;15.456;2023-05-10T12:17:30;7.70;;;4.13;;
4061;SDS011;2046;47.064;15.456;2023-05-10T12:20:12;9.57;;;3.40;;
4061;SDS011;2046;47.064;15.456;2023-05-10T12:22:40;6.18;;;3.03;;
4061;SDS011;2046;47.064;15.456;2023-05-10T12:25:08;5.40;;;3.05;;
4061;SDS011;2046;47.064;15.456;2023-05-10T12:27:35;5.40;;;2.88;;
4061;SDS011;2046;47.064;15.456;2023-05-10T12:30:02;3.92;;;1.98;;
4061;SDS011;2046;47.064;15.456;2023-05-10T12:32:37;4.63;;;2.58;;
4061;SDS011;2046;47.064;15.456;2023-05-10T12:35:04;5.40;;;2.58;;
4061;SDS011;2046;47.064;15.456;2023-05-10T12:37:32;3.90;;;2.60;;
4061;SDS011;2046;47.064;15.456;2023-05-10T12:40:02;5.75;;;2.55;;
4061;SDS011;2046;47.064;15.456;2023-05-10T12:42:31;3.22;;;1.88;;
4061;SDS011;2046;47.064;15.456;2023-05-10T12:44:58;3.40;;;2.55;;
4061;SDS011;2046;47.064;15.456;2023-05-10T12:47:24;3.15;;;2.38;;
4061;SDS011;2046;47.064;15.456;2023-05-10T12:49:51;2.55;;;2.10;;
4061;SDS011;2046;47.064;15.456;2023-05-10T12:52:18;3.67;;;1.95;;
4061;SDS011;2046;47.064;15.456;2023-05-10T12:54:45;3.22;;;1.83;;
4061;SDS011;2046;47.064;15.456;2023-05-10T12:57:12;4.25;;;2.17;;
4061;SDS011;2046;47.064;15.456;2023-05-10T12:59:39;2.75;;;2.00;;
4061;SDS011;2046;47.064;15.456;2023-05-10T13:02:06;2.35;;;1.85;;
4061;SDS011;2046;47.064;15.456;2023-05-10T13:04:32;4.28;;;2.08;;
4061;SDS011;2046;47.064;15.456;2023-05-10T13:06:59;2.38;;;1.83;;
4061;SDS011;2046;47.064;15.456;2023-05-10T13:09:26;2.88;;;2.20;;
4061;SDS011;2046;47.064;15.456;2023-05-10T13:11:53;3.85;;;1.77;;
4061;SDS011;2046;47.064;15.456;2023-05-10T13:14:20;4.10;;;2.10;;
4061;SDS011;2046;47.064;15.456;2023-05-10T13:16:47;2.15;;;1.95;;
4061;SDS011;2046;47.064;15.456;2023-05-10T13:19:14;3.03;;;1.90;;
4061;SDS011;2046;47.064;15.456;2023-05-10T13:21:40;4.72;;;2.20;;
4061;SDS011;2046;47.064;15.456;2023-05-10T13:24:07;2.65;;;1.98;;
4061;SDS011;2046;47.064;15.456;2023-05-10T13:26:34;3.78;;;2.05;;
4061;SDS011;2046;47.064;15.456;2023-05-10T13:29:01;1.60;;;1.50;;
4061;SDS011;2046;47.064;15.456;2023-05-10T13:31:27;2.25;;;1.98;;
4061;SDS011;2046;47.064;15.456;2023-05-10T13:33:54;2.60;;;2.00;;
4061;SDS011;2046;47.064;15.456;2023-05-10T13:36:21;3.20;;;2.00;;
4061;SDS011;2046;47.064;15.456;2023-05-10T13:38:49;8.48;;;2.38;;
4061;SDS011;2046;47.064;15.456;2023-05-10T13:41:15;3.65;;;1.85;;
4061;SDS011;2046;47.064;15.456;2023-05-10T13:43:42;2.40;;;1.75;;
4061;SDS011;2046;47.064;15.456;2023-05-10T13:46:08;1.90;;;1.67;;
4061;SDS011;2046;47.064;15.456;2023-05-10T13:48:35;2.47;;;1.95;;
4061;SDS011;2046;47.064;15.456;2023-05-10T13:51:05;2.95;;;1.95;;
4061;SDS011;2046;47.064;15.456;2023-05-10T13:53:31;2.00;;;1.77;;
4061;SDS011;2046;47.064;15.456;2023-05-10T13:55:58;3.10;;;2.10;;
4061;SDS011;2046;47.064;15.456;2023-05-10T13:58:24;1.90;;;1.63;;
4061;SDS011;2046;47.064;15.456;2023-05-10T14:00:51;1.98;;;1.58;;
4061;SDS011;2046;47.064;15.456;2023-05-10T14:03:18;3.47;;;1.85;;
4061;SDS011;2046;47.064;15.456;2023-05-10T14:05:44;2.20;;;2.00;;
4061;SDS011;2046;47.064;15.456;2023-05-10T14:08:11;3.47;;;1.85;;
4061;SDS011;2046;47.064;15.456;2023-05-10T14:10:39;2.42;;;1.83;;
4061;SDS011;2046;47.064;15.456;2023-05-10T14:13:06;2.13;;;1.70;;
4061;SDS011;2046;47.064;15.456;2023-05-10T14:15:32;1.70;;;1.60;;
4061;SDS011;2046;47.064;15.456;2023-05-10T14:17:59;2.03;;;1.90;;
4061;SDS011;2046;47.064;15.456;2023-05-10T14:20:26;2.15;;;1.95;;
4061;SDS011;2046;47.064;15.456;2023-05-10T14:22:52;2.33;;;1.70;;
4061;SDS011;2046;47.064;15.456;2023-05-10T14:25:19;1.80;;;1.70;;
4061;SDS011;2046;47.064;15.456;2023-05-10T14:27:46;1.75;;;1.52;;
4061;SDS011;2046;47.064;15.456;2023-05-10T14:30:12;1.65;;;1.55;;
4061;SDS011;2046;47.064;15.456;2023-05-10T14:32:39;3.03;;;1.70;;
4061;SDS011;2046;47.064;15.456;2023-05-10T14:35:06;4.72;;;1.70;;
4061;SDS011;2046;47.064;15.456;2023-05-10T14:37:37;1.70;;;1.60;;
4061;SDS011;2046;47.064;15.456;2023-05-10T14:40:04;1.63;;;1.52;;
4061;SDS011;2046;47.064;15.456;2023-05-10T14:42:31;2.35;;;1.77;;
4061;SDS011;2046;47.064;15.456;2023-05-10T14:44:57;1.73;;;1.63;;
4061;SDS011;2046;47.064;15.456;2023-05-10T14:47:24;3.50;;;1.52;;
4061;SDS011;2046;47.064;15.456;2023-05-10T14:49:50;1.83;;;1.73;;
4061;SDS011;2046;47.064;15.456;2023-05-10T14:52:17;2.45;;;1.90;;
4061;SDS011;2046;47.064;15.456;2023-05-10T14:54:44;3.40;;;1.73;;
4061;SDS011;2046;47.064;15.456;2023-05-10T14:57:11;1.70;;;1.60;;
4061;SDS011;2046;47.064;15.456;2023-05-10T14:59:37;2.10;;;1.88;;
4061;SDS011;2046;47.064;15.456;2023-05-10T15:02:05;1.95;;;1.58;;
4061;SDS011;2046;47.064;15.456;2023-05-10T15:04:32;2.08;;;1.52;;
4061;SDS011;2046;47.064;15.456;2023-05-10T15:06:59;1.77;;;1.67;;
4061;SDS011;2046;47.064;15.456;2023-05-10T15:09:26;1.92;;;1.83;;
4061;SDS011;2046;47.064;15.456;2023-05-10T15:11:56;1.88;;;1.63;;
4061;SDS011;2046;47.064;15.456;2023-05-10T15:14:23;1.73;;;1.55;;
4061;SDS011;2046;47.064;15.456;2023-05-10T15:16:49;1.67;;;1.58;;
4061;SDS011;2046;47.064;15.456;2023-05-10T15:19:16;7.50;;;1.67;;
4061;SDS011;2046;47.064;15.456;2023-05-10T15:21:43;1.50;;;1.40;;
4061;SDS011;2046;47.064;15.456;2023-05-10T15:24:10;2.47;;;1.95;;
4061;SDS011;2046;47.064;15.456;2023-05-10T15:26:37;2.35;;;1.42;;
4061;SDS011;2046;47.064;15.456;2023-05-10T15:29:03;7.13;;;1.88;;
4061;SDS011;2046;47.064;15.456;2023-05-10T15:31:30;1.70;;;1.45;;
4061;SDS011;2046;47.064;15.456;2023-05-10T15:33:57;2.17;;;1.25;;
4061;SDS011;2046;47.064;15.456;2023-05-10T15:36:26;7.00;;;1.45;;
4061;SDS011;2046;47.064;15.456;2023-05-10T15:38:53;2.78;;;1.52;;
4061;SDS011;2046;47.064;15.456;2023-05-10T15:41:20;3.83;;;1.70;;
4061;SDS011;2046;47.064;15.456;2023-05-10T15:43:47;5.45;;;1.85;;